createdAt,value
2019-01-28T00:00:49.968Z,96.2
2019-01-28T00:02:49.962Z,96.1
2019-01-28T00:04:50.374Z,96.4
2019-01-28T00:06:50.653Z,96.6
2019-01-28T00:08:50.703Z,96.6
2019-01-28T00:10:50.736Z,96.7
2019-01-28T00:12:50.783Z,96.6
2019-01-28T00:14:49.858Z,96.2
2019-01-28T00:16:50.124Z,96.6
2019-01-28T00:18:50.174Z,96.8
2019-01-28T00:20:50.137Z,97.4
2019-01-28T00:22:50.135Z,97.7
2019-01-28T00:24:50.113Z,98.0
2019-01-28T00:26:50.341Z,98.4
2019-01-28T00:28:50.376Z,98.7
2019-01-28T00:30:50.353Z,99.3
2019-01-28T00:32:50.402Z,99.5
2019-01-28T00:34:50.571Z,100.0
2019-01-28T00:36:49.933Z,100.0
2019-01-28T00:38:50.093Z,100.0
2019-01-28T00:40:50.129Z,100.0
2019-01-28T00:42:50.164Z,100.0
2019-01-28T00:44:50.204Z,100.0
2019-01-28T00:46:50.340Z,100.0
2019-01-28T00:48:50.350Z,100.0
2019-01-28T00:50:50.376Z,100.0
2019-01-28T00:52:50.414Z,100.0
2019-01-28T00:54:50.404Z,100.0
2019-01-28T00:56:50.650Z,100.0
2019-01-28T00:58:50.732Z,100.0
2019-01-28T01:00:49.898Z,100.0
2019-01-28T01:02:50.077Z,100.0
2019-01-28T01:04:50.548Z,100.0
2019-01-28T01:06:49.806Z,100.0
2019-01-28T01:08:49.805Z,100.0
2019-01-28T01:10:49.806Z,100.0
2019-01-28T01:12:50.004Z,100.0
2019-01-28T01:14:50.050Z,99.8
2019-01-28T01:16:50.291Z,99.9
2019-01-28T01:18:50.383Z,100.0
2019-01-28T01:20:50.389Z,100.0
2019-01-28T01:22:50.445Z,100.0
2019-01-28T01:24:50.446Z,100.0
2019-01-28T01:26:49.837Z,100.0
2019-01-28T01:28:49.844Z,100.0
2019-01-28T01:30:49.890Z,100.0
2019-01-28T01:32:49.937Z,100.0
2019-01-28T01:34:50.460Z,100.0
2019-01-28T01:36:50.645Z,100.0
2019-01-28T01:38:50.618Z,100.0
2019-01-28T01:40:50.642Z,100.0
2019-01-28T01:42:50.625Z,100.0
2019-01-28T01:44:50.714Z,100.0
2019-01-28T01:46:50.010Z,100.0
2019-01-28T01:48:50.035Z,100.0
2019-01-28T01:50:50.027Z,99.7
2019-01-28T01:52:50.058Z,99.8
2019-01-28T01:54:50.127Z,98.5
2019-01-28T01:56:50.295Z,98.3
2019-01-28T01:58:50.290Z,98.3
2019-01-28T02:00:50.229Z,98.3
2019-01-28T02:02:50.240Z,98.0
2019-01-28T02:04:50.460Z,98.0
2019-01-28T02:06:50.722Z,97.3
2019-01-28T02:08:50.747Z,96.9
2019-01-28T02:10:50.731Z,96.6
2019-01-28T02:12:50.871Z,95.9
2019-01-28T02:14:49.960Z,95.7
2019-01-28T02:16:50.261Z,95.7
2019-01-28T02:18:50.324Z,95.6
2019-01-28T02:20:50.507Z,95.5
2019-01-28T02:22:49.877Z,95.3
2019-01-28T02:24:49.971Z,94.8
2019-01-28T02:26:50.358Z,94.8
2019-01-28T02:28:50.519Z,95.1
2019-01-28T02:30:50.601Z,94.8
2019-01-28T02:32:49.831Z,95.0
2019-01-28T02:34:50.233Z,94.7
2019-01-28T02:36:50.424Z,94.7
2019-01-28T02:38:50.551Z,94.4
2019-01-28T02:40:50.613Z,94.5
2019-01-28T02:42:50.810Z,94.4
2019-01-28T02:44:49.880Z,94.4
2019-01-28T02:46:50.059Z,94.1
2019-01-28T02:48:50.102Z,93.5
2019-01-28T02:50:50.142Z,93.5
2019-01-28T02:52:50.134Z,93.2
2019-01-28T02:54:50.251Z,93.6
2019-01-28T02:56:50.478Z,93.4
2019-01-28T02:58:50.538Z,93.4
2019-01-28T03:00:50.512Z,93.5
2019-01-28T03:02:50.578Z,93.4
2019-01-28T03:04:49.804Z,93.2
2019-01-28T03:06:50.125Z,93.2
2019-01-28T03:08:50.456Z,93.1
2019-01-28T03:10:50.518Z,92.9
2019-01-28T03:12:50.609Z,92.6
2019-01-28T03:14:50.546Z,92.7
2019-01-28T03:16:49.846Z,92.2
2019-01-28T03:18:49.879Z,92.3
2019-01-28T03:20:49.953Z,92.0
2019-01-28T03:22:49.992Z,91.8
2019-01-28T03:24:50.070Z,91.0
2019-01-28T03:26:50.256Z,90.8
2019-01-28T03:28:50.310Z,90.8
2019-01-28T03:30:50.464Z,90.7
2019-01-28T03:32:50.526Z,91.1
2019-01-28T03:34:50.036Z,90.5
2019-01-28T03:36:50.196Z,90.7
2019-01-28T03:38:50.244Z,89.6
2019-01-28T03:40:50.242Z,89.5
2019-01-28T03:42:50.282Z,88.8
2019-01-28T03:44:50.303Z,88.9
2019-01-28T03:46:50.503Z,88.6
2019-01-28T03:48:50.520Z,88.0
2019-01-28T03:50:50.508Z,88.3
2019-01-28T03:52:50.520Z,88.6
2019-01-28T03:54:50.538Z,89.3
2019-01-28T03:56:50.714Z,89.4
2019-01-28T03:58:50.683Z,89.6
2019-01-28T04:00:50.736Z,89.2
2019-01-28T04:02:50.687Z,89.0
2019-01-28T04:04:50.141Z,89.6
2019-01-28T04:06:50.391Z,89.2
2019-01-28T04:08:50.429Z,89.1
2019-01-28T04:10:50.454Z,89.1
2019-01-28T04:12:50.489Z,88.9
2019-01-28T04:14:50.450Z,88.6
2019-01-28T04:16:50.715Z,88.1
2019-01-28T04:18:50.631Z,88.1
2019-01-28T04:20:50.696Z,87.4
2019-01-28T04:22:50.699Z,87.6
2019-01-28T04:24:50.708Z,87.1
2019-01-28T04:26:49.911Z,86.7
2019-01-28T04:28:49.951Z,86.7
2019-01-28T04:30:50.071Z,86.1
2019-01-28T04:32:50.007Z,85.8
2019-01-28T04:34:50.276Z,86.1
2019-01-28T04:36:50.556Z,85.9
2019-01-28T04:38:50.501Z,86.1
2019-01-28T04:40:50.638Z,86.5
2019-01-28T04:42:50.672Z,86.4
2019-01-28T04:44:50.777Z,86.1
2019-01-28T04:46:49.944Z,87.3
2019-01-28T04:48:50.094Z,87.0
2019-01-28T04:50:50.219Z,86.4
2019-01-28T04:52:50.319Z,87.3
2019-01-28T04:54:50.341Z,87.4
2019-01-28T04:56:50.551Z,86.7
2019-01-28T04:58:50.548Z,87.2
2019-01-28T05:00:50.609Z,87.1
2019-01-28T05:02:50.601Z,86.8
2019-01-28T05:04:49.891Z,86.8
2019-01-28T05:06:50.057Z,87.5
2019-01-28T05:08:50.203Z,86.8
2019-01-28T05:10:50.278Z,87.5
2019-01-28T05:12:50.415Z,87.1
2019-01-28T05:14:50.492Z,87.4
2019-01-28T05:16:50.746Z,87.7
2019-01-28T05:18:49.929Z,86.9
2019-01-28T05:20:49.934Z,87.4
2019-01-28T05:22:50.090Z,88.1
2019-01-28T05:24:50.123Z,86.6
2019-01-28T05:26:49.974Z,86.7
2019-01-28T05:28:49.968Z,87.1
2019-01-28T05:30:49.989Z,87.4
2019-01-28T05:32:50.039Z,87.7
2019-01-28T05:34:50.504Z,88.1
2019-01-28T05:36:50.756Z,87.5
2019-01-28T05:38:50.747Z,87.4
2019-01-28T05:40:50.799Z,88.2
2019-01-28T05:42:49.808Z,87.0
2019-01-28T05:44:50.578Z,86.6
2019-01-28T05:46:49.905Z,86.7
2019-01-28T05:48:49.997Z,87.2
2019-01-28T05:50:50.036Z,87.3
2019-01-28T05:52:50.122Z,86.7
2019-01-28T05:54:50.059Z,86.8
2019-01-28T05:56:50.299Z,87.6
2019-01-28T05:58:50.295Z,88.9
2019-01-28T06:00:50.254Z,88.9
2019-01-28T06:02:50.397Z,88.0
2019-01-28T06:04:49.824Z,88.4
2019-01-28T06:06:50.022Z,88.3
2019-01-28T06:08:49.940Z,87.5
2019-01-28T06:10:49.930Z,88.1
2019-01-28T06:12:50.064Z,88.5
2019-01-28T06:14:50.052Z,88.7
2019-01-28T06:16:50.192Z,88.0
2019-01-28T06:18:50.188Z,88.4
2019-01-28T06:20:50.181Z,87.8
2019-01-28T06:22:50.148Z,88.7
2019-01-28T06:24:50.107Z,89.1
2019-01-28T06:26:50.297Z,87.3
2019-01-28T06:28:50.319Z,87.6
2019-01-28T06:30:50.285Z,87.3
2019-01-28T06:32:50.254Z,87.3
2019-01-28T06:34:50.552Z,87.1
2019-01-28T06:36:50.423Z,87.2
2019-01-28T06:38:50.460Z,87.8
2019-01-28T06:40:50.481Z,87.4
2019-01-28T06:42:50.558Z,87.4
2019-01-28T06:44:50.541Z,88.2
2019-01-28T06:46:50.743Z,87.3
2019-01-28T06:48:50.738Z,89.2
2019-01-28T06:50:49.791Z,88.3
2019-01-28T06:52:49.903Z,88.1
2019-01-28T06:54:49.926Z,87.8
2019-01-28T06:56:50.177Z,87.8
2019-01-28T06:58:50.213Z,88.5
2019-01-28T07:00:50.314Z,88.5
2019-01-28T07:02:50.334Z,88.2
2019-01-28T07:04:50.545Z,88.6
2019-01-28T07:06:49.805Z,88.3
2019-01-28T07:08:49.890Z,88.1
2019-01-28T07:10:49.937Z,87.6
2019-01-28T07:12:49.955Z,87.6
2019-01-28T07:14:50.081Z,88.2
2019-01-28T07:16:50.282Z,88.6
2019-01-28T07:18:50.319Z,88.2
2019-01-28T07:20:50.327Z,87.4
2019-01-28T07:22:50.339Z,87.3
2019-01-28T07:24:50.333Z,87.4
2019-01-28T07:26:50.523Z,87.8
2019-01-28T07:28:50.498Z,88.3
2019-01-28T07:30:50.472Z,88.3
2019-01-28T07:32:50.559Z,89.0
2019-01-28T07:34:49.792Z,88.1
2019-01-28T07:36:49.974Z,87.9
2019-01-28T07:38:49.976Z,88.3
2019-01-28T07:40:50.076Z,88.5
2019-01-28T07:42:50.099Z,88.6
2019-01-28T07:44:50.066Z,88.8
2019-01-28T07:46:50.225Z,89.1
2019-01-28T07:48:50.198Z,89.5
2019-01-28T07:50:50.157Z,89.2
2019-01-28T07:52:50.210Z,90.0
2019-01-28T07:54:50.274Z,89.8
2019-01-28T07:56:50.485Z,89.8
2019-01-28T07:58:50.503Z,89.3
2019-01-28T08:00:50.532Z,89.5
2019-01-28T08:02:50.611Z,89.5
2019-01-28T08:04:50.147Z,89.5
2019-01-28T08:07:00.029Z,89.5
2019-01-28T08:08:50.118Z,88.9
2019-01-28T08:10:50.065Z,89.1
2019-01-28T08:12:50.256Z,88.2
2019-01-28T08:14:50.405Z,88.2
2019-01-28T08:16:50.585Z,88.1
2019-01-28T08:18:49.775Z,88.8
2019-01-28T08:20:49.914Z,88.6
2019-01-28T08:22:50.023Z,88.2
2019-01-28T08:24:50.115Z,87.9
2019-01-28T08:26:50.358Z,87.4
2019-01-28T08:28:50.409Z,88.2
2019-01-28T08:30:50.569Z,87.6
2019-01-28T08:32:50.664Z,87.0
2019-01-28T08:34:49.997Z,86.8
2019-01-28T08:36:50.341Z,86.3
2019-01-28T08:38:50.387Z,86.6
2019-01-28T08:40:50.438Z,86.1
2019-01-28T08:42:50.526Z,86.0
2019-01-28T08:44:50.450Z,86.1
2019-01-28T08:46:49.835Z,86.2
2019-01-28T08:48:49.803Z,85.9
2019-01-28T08:50:49.907Z,85.6
2019-01-28T08:52:49.852Z,85.8
2019-01-28T08:54:49.914Z,85.3
2019-01-28T08:56:50.095Z,85.5
2019-01-28T08:58:50.078Z,86.5
2019-01-28T09:00:50.200Z,85.2
2019-01-28T09:02:50.183Z,84.1
2019-01-28T09:04:50.385Z,83.6
2019-01-28T09:06:50.583Z,84.3
2019-01-28T09:08:50.508Z,84.0
2019-01-28T09:10:50.567Z,82.3
2019-01-28T09:12:50.593Z,82.9
2019-01-28T09:14:50.651Z,83.1
2019-01-28T09:16:49.787Z,83.1
2019-01-28T09:18:49.936Z,83.7
2019-01-28T09:20:50.021Z,83.2
2019-01-28T09:22:50.229Z,83.2
2019-01-28T09:24:50.423Z,83.6
2019-01-28T09:26:50.695Z,83.4
2019-01-28T09:28:50.750Z,83.2
2019-01-28T09:30:50.653Z,83.1
2019-01-28T09:32:50.685Z,83.1
2019-01-28T09:34:50.221Z,83.6
2019-01-28T09:36:50.364Z,83.2
2019-01-28T09:38:50.299Z,84.1
2019-01-28T09:40:50.353Z,84.0
2019-01-28T09:42:50.294Z,83.6
2019-01-28T09:44:50.352Z,83.4
2019-01-28T09:46:50.514Z,83.8
2019-01-28T09:48:50.588Z,82.3
2019-01-28T09:50:50.645Z,82.7
2019-01-28T09:52:50.593Z,82.7
2019-01-28T09:54:50.792Z,82.9
2019-01-28T09:56:50.133Z,82.8
2019-01-28T09:58:50.120Z,82.4
2019-01-28T10:00:50.171Z,82.2
2019-01-28T10:02:50.157Z,81.6
2019-01-28T10:04:50.526Z,82.0
2019-01-28T10:06:49.816Z,83.5
2019-01-28T10:08:50.767Z,82.9
2019-01-28T10:10:49.786Z,81.9
2019-01-28T10:12:50.039Z,81.5
2019-01-28T10:14:50.084Z,81.4
2019-01-28T10:16:50.265Z,81.3
2019-01-28T10:18:50.681Z,81.0
2019-01-28T10:20:50.847Z,79.8
2019-01-28T10:22:50.057Z,80.2
2019-01-28T10:24:50.005Z,80.8
2019-01-28T10:26:50.243Z,79.1
2019-01-28T10:28:50.254Z,80.7
2019-01-28T10:30:50.208Z,79.7
2019-01-28T10:32:50.361Z,79.2
2019-01-28T10:34:52.265Z,80.5
2019-01-28T10:36:50.531Z,81.1
2019-01-28T10:38:50.507Z,80.5
2019-01-28T10:40:50.550Z,80.6
2019-01-28T10:42:50.548Z,81.6
2019-01-28T10:44:50.649Z,82.9
2019-01-28T10:46:49.825Z,83.5
2019-01-28T10:48:50.243Z,82.4
2019-01-28T10:50:50.281Z,84.4
2019-01-28T10:52:50.278Z,85.3
2019-01-28T10:54:50.307Z,84.2
2019-01-28T10:56:50.592Z,84.0
2019-01-28T10:58:50.581Z,83.4
2019-01-28T11:00:50.506Z,83.7
2019-01-28T11:02:50.536Z,84.0
2019-01-28T11:04:49.891Z,83.9
2019-01-28T11:06:50.270Z,82.5
2019-01-28T11:08:50.351Z,83.1
2019-01-28T11:10:50.424Z,83.1
2019-01-28T11:12:50.865Z,83.4
2019-01-28T11:14:50.234Z,83.7
2019-01-28T11:16:50.890Z,83.2
2019-01-28T11:18:58.535Z,84.0
2019-01-28T11:20:51.185Z,83.2
2019-01-28T11:22:50.826Z,83.4
2019-01-28T11:24:50.285Z,83.7
2019-01-28T11:26:51.069Z,82.3
2019-01-28T11:28:50.338Z,82.6
2019-01-28T11:30:50.796Z,82.9
2019-01-28T11:32:49.787Z,82.5
2019-01-28T11:34:50.982Z,80.5
2019-01-28T11:36:50.700Z,80.4
2019-01-28T11:38:51.325Z,79.7
2019-01-28T11:40:50.626Z,79.7
2019-01-28T11:42:51.761Z,77.8
2019-01-28T11:44:50.935Z,77.0
2019-01-28T11:46:51.258Z,77.7
2019-01-28T11:48:51.195Z,77.2
2019-01-28T11:50:56.746Z,77.3
2019-01-28T11:52:49.937Z,77.6
2019-01-28T11:54:49.992Z,77.9
2019-01-28T11:56:50.385Z,78.4
2019-01-28T11:58:50.471Z,79.0
2019-01-28T12:00:50.496Z,79.0
2019-01-28T12:02:50.607Z,78.6
2019-01-28T12:04:49.953Z,78.8
2019-01-28T12:06:50.114Z,78.7
2019-01-28T12:08:50.083Z,78.7
2019-01-28T12:10:50.065Z,79.1
2019-01-28T12:12:50.226Z,79.6
2019-01-28T12:14:50.218Z,80.1
2019-01-28T12:16:50.337Z,80.5
2019-01-28T12:18:50.363Z,80.5
2019-01-28T12:20:54.268Z,81.2
2019-01-28T12:22:50.258Z,80.6
2019-01-28T12:24:50.185Z,80.8
2019-01-28T12:26:50.329Z,80.6
2019-01-28T12:28:50.376Z,80.6
2019-01-28T12:30:50.373Z,80.5
2019-01-28T12:32:50.382Z,80.6
2019-01-28T12:34:50.748Z,81.0
2019-01-28T12:36:50.121Z,80.9
2019-01-28T12:38:50.590Z,82.2
2019-01-28T12:40:50.700Z,81.6
2019-01-28T12:42:52.724Z,81.5
2019-01-28T12:44:49.859Z,81.1
2019-01-28T12:46:50.252Z,81.5
2019-01-28T12:48:50.291Z,82.5
2019-01-28T12:50:50.258Z,83.5
2019-01-28T12:52:50.297Z,83.4
2019-01-28T12:54:50.255Z,83.7
2019-01-28T12:56:50.676Z,84.4
2019-01-28T12:58:50.763Z,85.3
2019-01-28T13:00:49.834Z,85.3
2019-01-28T13:02:49.791Z,87.7
2019-01-28T13:04:50.083Z,87.5
2019-01-28T13:06:50.336Z,87.5
2019-01-28T13:08:50.310Z,88.0
2019-01-28T13:10:50.401Z,87.6
2019-01-28T13:12:50.416Z,87.2
2019-01-28T13:14:50.355Z,87.3
2019-01-28T13:16:50.623Z,87.9
2019-01-28T13:18:50.626Z,87.6
2019-01-28T13:20:50.618Z,88.9
2019-01-28T13:22:50.628Z,88.8
2019-01-28T13:24:50.707Z,88.6
2019-01-28T13:26:50.012Z,88.6
2019-01-28T13:28:50.008Z,88.9
2019-01-28T13:30:49.960Z,90.9
2019-01-28T13:32:49.967Z,91.1
2019-01-28T13:34:50.326Z,90.3
2019-01-28T13:36:50.507Z,90.0
2019-01-28T13:38:50.583Z,91.0
2019-01-28T13:40:50.635Z,91.4
2019-01-28T13:42:50.608Z,91.0
2019-01-28T13:44:50.635Z,91.9
2019-01-28T13:46:49.883Z,92.0
2019-01-28T13:48:49.946Z,92.3
2019-01-28T13:50:49.945Z,93.0
2019-01-28T13:52:49.983Z,92.5
2019-01-28T13:54:50.130Z,93.2
2019-01-28T13:56:50.322Z,93.5
2019-01-28T13:58:52.018Z,93.5
2019-01-28T14:00:50.018Z,94.1
2019-01-28T14:02:49.974Z,95.4
2019-01-28T14:04:50.516Z,95.6
2019-01-28T14:06:50.689Z,96.5
2019-01-28T14:08:50.747Z,97.0
2019-01-28T14:10:49.798Z,97.9
2019-01-28T14:12:49.801Z,98.3
2019-01-28T14:14:49.918Z,98.2
2019-01-28T14:16:50.123Z,99.9
2019-01-28T14:18:50.193Z,99.9
2019-01-28T14:20:53.935Z,100.0
2019-01-28T14:22:49.939Z,100.0
2019-01-28T14:24:50.063Z,100.0
2019-01-28T14:26:50.215Z,100.0
2019-01-28T14:28:50.167Z,100.0
2019-01-28T14:30:50.137Z,100.0
2019-01-28T14:32:50.167Z,100.0
2019-01-28T14:34:50.525Z,100.0
2019-01-28T14:36:50.738Z,100.0
2019-01-28T14:38:50.694Z,100.0
2019-01-28T14:40:50.795Z,100.0
2019-01-28T14:42:50.750Z,100.0
2019-01-28T14:44:49.803Z,100.0
2019-01-28T14:46:50.013Z,100.0
2019-01-28T14:48:50.038Z,100.0
2019-01-28T14:50:50.021Z,100.0
2019-01-28T14:52:50.407Z,100.0
2019-01-28T14:54:50.442Z,100.0
2019-01-28T14:56:52.557Z,100.0
2019-01-28T14:58:50.656Z,100.0
2019-01-28T15:00:50.614Z,100.0
2019-01-28T15:02:50.626Z,100.0
2019-01-28T15:04:50.074Z,100.0
2019-01-28T15:06:50.288Z,100.0
2019-01-28T15:08:50.443Z,100.0
2019-01-28T15:10:50.509Z,100.0
2019-01-28T15:12:50.490Z,100.0
2019-01-28T15:14:50.548Z,100.0
2019-01-28T15:16:49.932Z,100.0
2019-01-28T15:18:49.940Z,100.0
2019-01-28T15:20:49.952Z,100.0
2019-01-28T15:22:49.962Z,100.0
2019-01-28T15:24:50.103Z,100.0
2019-01-28T15:26:50.454Z,100.0
2019-01-28T15:28:50.507Z,100.0
2019-01-28T15:30:50.723Z,100.0
2019-01-28T15:32:51.064Z,100.0
2019-01-28T15:34:50.470Z,100.0
2019-01-28T15:36:50.746Z,100.0
2019-01-28T15:38:50.804Z,100.0
2019-01-28T15:40:49.882Z,100.0
2019-01-28T15:42:49.909Z,100.0
2019-01-28T15:44:49.948Z,100.0
2019-01-28T15:46:50.101Z,100.0
2019-01-28T15:48:50.140Z,100.0
2019-01-28T15:50:50.118Z,100.0
2019-01-28T15:52:51.582Z,100.0
2019-01-28T15:54:50.717Z,100.0
2019-01-28T15:56:49.912Z,100.0
2019-01-28T15:58:49.942Z,100.0
2019-01-28T16:00:50.084Z,100.0
2019-01-28T16:02:50.076Z,100.0
2019-01-28T16:04:50.314Z,100.0
2019-01-28T16:06:50.581Z,100.0
2019-01-28T16:08:50.555Z,100.0
2019-01-28T16:10:50.611Z,100.0
2019-01-28T16:12:50.583Z,100.0
2019-01-28T16:14:50.597Z,100.0
2019-01-28T16:16:49.790Z,100.0
2019-01-28T16:18:49.840Z,100.0
2019-01-28T16:20:50.778Z,100.0
2019-01-28T16:22:49.791Z,100.0
2019-01-28T16:24:49.830Z,100.0
2019-01-28T16:26:50.084Z,100.0
2019-01-28T16:28:50.068Z,100.0
2019-01-28T16:30:50.051Z,100.0
2019-01-28T16:32:50.002Z,100.0
2019-01-28T16:34:50.380Z,100.0
2019-01-28T16:36:50.468Z,100.0
2019-01-28T16:38:50.392Z,100.0
2019-01-28T16:40:50.418Z,100.0
2019-01-28T16:42:50.419Z,100.0
2019-01-28T16:44:50.371Z,100.0
2019-01-28T16:46:50.630Z,100.0
2019-01-28T16:48:50.620Z,100.0
2019-01-28T16:50:50.710Z,100.0
2019-01-28T16:52:50.740Z,100.0
2019-01-28T16:54:50.816Z,100.0
2019-01-28T16:56:50.090Z,100.0
2019-01-28T16:58:50.082Z,100.0
2019-01-28T17:00:50.158Z,100.0
2019-01-28T17:02:50.130Z,100.0
2019-01-28T17:04:50.431Z,100.0
2019-01-28T17:06:50.553Z,100.0
2019-01-28T17:08:50.524Z,100.0
2019-01-28T17:10:50.516Z,100.0
2019-01-28T17:12:50.479Z,100.0
2019-01-28T17:14:50.537Z,100.0
2019-01-28T17:16:50.733Z,100.0
2019-01-28T17:18:49.771Z,100.0
2019-01-28T17:20:49.839Z,100.0
2019-01-28T17:22:49.920Z,100.0
2019-01-28T17:24:49.989Z,100.0
2019-01-28T17:26:50.302Z,100.0
2019-01-28T17:28:50.421Z,100.0
2019-01-28T17:30:50.476Z,100.0
2019-01-28T17:32:50.456Z,100.0
2019-01-28T17:34:49.911Z,100.0
2019-01-28T17:36:50.070Z,100.0
2019-01-28T17:38:50.037Z,100.0
2019-01-28T17:40:49.999Z,100.0
2019-01-28T17:42:50.063Z,100.0
2019-01-28T17:44:50.032Z,100.0
2019-01-28T17:46:50.276Z,100.0
2019-01-28T17:48:50.345Z,100.0
2019-01-28T17:50:50.318Z,100.0
2019-01-28T17:52:50.580Z,100.0
2019-01-28T17:54:50.550Z,100.0
2019-01-28T17:56:49.778Z,100.0
2019-01-28T17:58:50.177Z,100.0
2019-01-28T18:00:50.282Z,100.0
2019-01-28T18:02:50.310Z,100.0
2019-01-28T18:04:50.567Z,100.0
2019-01-28T18:06:50.770Z,100.0
2019-01-28T18:08:49.848Z,100.0
2019-01-28T18:10:49.830Z,100.0
2019-01-28T18:12:49.893Z,100.0
2019-01-28T18:14:49.893Z,100.0
2019-01-28T18:16:50.198Z,100.0
2019-01-28T18:18:50.153Z,100.0
2019-01-28T18:20:52.601Z,100.0
2019-01-28T18:22:50.606Z,100.0
2019-01-28T18:24:50.839Z,100.0
2019-01-28T18:26:50.073Z,100.0
2019-01-28T18:28:50.079Z,100.0
2019-01-28T18:30:50.193Z,100.0
2019-01-28T18:32:50.351Z,100.0
2019-01-28T18:34:50.542Z,100.0
2019-01-28T18:36:49.810Z,100.0
2019-01-28T18:38:49.974Z,100.0
2019-01-28T18:40:50.024Z,100.0
2019-01-28T18:42:50.005Z,100.0
2019-01-28T18:44:49.998Z,100.0
2019-01-28T18:46:50.314Z,100.0
2019-01-28T18:48:50.428Z,100.0
2019-01-28T18:50:50.408Z,100.0
2019-01-28T18:52:50.397Z,100.0
2019-01-28T18:54:50.367Z,100.0
2019-01-28T18:56:50.692Z,100.0
2019-01-28T18:58:49.803Z,100.0
2019-01-28T19:00:49.842Z,100.0
2019-01-28T19:02:49.949Z,100.0
2019-01-28T19:04:50.524Z,100.0
2019-01-28T19:06:50.759Z,100.0
2019-01-28T19:08:50.766Z,100.0
2019-01-28T19:10:49.887Z,100.0
2019-01-28T19:12:49.920Z,100.0
2019-01-28T19:14:50.047Z,100.0
2019-01-28T19:16:50.296Z,100.0
2019-01-28T19:18:50.305Z,100.0
2019-01-28T19:20:50.326Z,100.0
2019-01-28T19:22:50.424Z,100.0
2019-01-28T19:24:50.469Z,100.0
2019-01-28T19:26:50.757Z,100.0
2019-01-28T19:28:49.785Z,100.0
2019-01-28T19:30:49.883Z,100.0
2019-01-28T19:32:49.993Z,100.0
2019-01-28T19:34:50.431Z,100.0
2019-01-28T19:36:50.676Z,100.0
2019-01-28T19:38:50.755Z,100.0
2019-01-28T19:40:49.805Z,100.0
2019-01-28T19:42:50.032Z,100.0
2019-01-28T19:44:50.042Z,100.0
2019-01-28T19:46:50.477Z,100.0
2019-01-28T19:48:50.535Z,100.0
2019-01-28T19:50:50.549Z,100.0
2019-01-28T19:52:50.568Z,100.0
2019-01-28T19:54:50.538Z,100.0
2019-01-28T19:56:49.857Z,100.0
2019-01-28T19:58:49.907Z,100.0
2019-01-28T20:00:49.992Z,100.0
2019-01-28T20:02:50.034Z,100.0
2019-01-28T20:04:50.294Z,100.0
2019-01-28T20:06:50.486Z,100.0
2019-01-28T20:08:50.428Z,100.0
2019-01-28T20:10:50.450Z,100.0
2019-01-28T20:12:50.420Z,100.0
2019-01-28T20:14:50.427Z,100.0
2019-01-28T20:16:50.672Z,100.0
2019-01-28T20:18:50.761Z,100.0
2019-01-28T20:20:50.775Z,100.0
2019-01-28T20:22:49.927Z,100.0
2019-01-28T20:24:50.013Z,100.0
2019-01-28T20:26:50.223Z,100.0
2019-01-28T20:28:50.318Z,100.0
2019-01-28T20:30:50.294Z,100.0
2019-01-28T20:32:50.273Z,100.0
2019-01-28T20:34:50.713Z,100.0
2019-01-28T20:36:50.057Z,100.0
2019-01-28T20:38:50.053Z,100.0
2019-01-28T20:40:50.045Z,100.0
2019-01-28T20:42:50.031Z,100.0
2019-01-28T20:44:50.131Z,100.0
2019-01-28T20:46:50.369Z,100.0
2019-01-28T20:48:50.536Z,100.0
2019-01-28T20:50:50.622Z,100.0
2019-01-28T20:52:50.712Z,100.0
2019-01-28T20:54:49.929Z,100.0
2019-01-28T20:56:50.300Z,100.0
2019-01-28T20:58:50.480Z,100.0
2019-01-28T21:00:50.624Z,100.0
2019-01-28T21:02:50.768Z,100.0
2019-01-28T21:04:50.207Z,100.0
2019-01-28T21:06:50.622Z,100.0
2019-01-28T21:08:50.859Z,100.0
2019-01-28T21:10:50.014Z,100.0
2019-01-28T21:12:50.307Z,100.0
2019-01-28T21:14:50.507Z,100.0
2019-01-28T21:16:50.910Z,100.0
2019-01-28T21:18:49.927Z,100.0
2019-01-28T21:20:49.991Z,100.0
2019-01-28T21:22:50.049Z,100.0
2019-01-28T21:24:50.074Z,100.0
2019-01-28T21:26:50.333Z,100.0
2019-01-28T21:28:50.369Z,100.0
2019-01-28T21:30:50.403Z,100.0
2019-01-28T21:32:50.499Z,100.0
2019-01-28T21:34:49.964Z,100.0
2019-01-28T21:36:50.255Z,100.0
2019-01-28T21:38:49.988Z,100.0
2019-01-28T21:40:49.981Z,100.0
2019-01-28T21:42:49.975Z,100.0
2019-01-28T21:44:50.106Z,100.0
2019-01-28T21:46:50.412Z,100.0
2019-01-28T21:48:50.495Z,100.0
2019-01-28T21:50:50.558Z,100.0
2019-01-28T21:52:50.639Z,100.0
2019-01-28T21:54:50.655Z,100.0
2019-01-28T21:56:49.961Z,100.0
2019-01-28T21:58:50.022Z,100.0
2019-01-28T22:00:50.112Z,100.0
2019-01-28T22:02:50.097Z,100.0
2019-01-28T22:04:50.396Z,100.0
2019-01-28T22:06:50.800Z,100.0
2019-01-28T22:08:49.809Z,100.0
2019-01-28T22:10:49.885Z,100.0
2019-01-28T22:12:49.907Z,100.0
2019-01-28T22:14:49.883Z,100.0
2019-01-28T22:16:49.990Z,100.0
2019-01-28T22:18:50.054Z,100.0
2019-01-28T22:20:50.061Z,100.0
2019-01-28T22:22:50.057Z,100.0
2019-01-28T22:24:50.055Z,100.0
2019-01-28T22:26:50.254Z,100.0
2019-01-28T22:28:50.215Z,100.0
2019-01-28T22:30:50.208Z,100.0
2019-01-28T22:32:50.213Z,100.0
2019-01-28T22:34:50.611Z,100.0
2019-01-28T22:36:50.728Z,100.0
2019-01-28T22:38:50.651Z,100.0
2019-01-28T22:40:50.712Z,100.0
2019-01-28T22:42:50.733Z,100.0
2019-01-28T22:44:49.826Z,100.0
2019-01-28T22:46:49.980Z,100.0
2019-01-28T22:48:50.093Z,100.0
2019-01-28T22:50:50.094Z,100.0
2019-01-28T22:52:50.070Z,100.0
2019-01-28T22:54:50.039Z,100.0
2019-01-28T22:56:50.259Z,100.0
2019-01-28T22:58:50.274Z,100.0
2019-01-28T23:00:50.254Z,100.0
2019-01-28T23:02:50.094Z,100.0
2019-01-28T23:04:50.306Z,100.0
2019-01-28T23:06:50.476Z,100.0
2019-01-28T23:08:50.582Z,100.0
2019-01-28T23:10:50.556Z,100.0
2019-01-28T23:12:50.619Z,100.0
2019-01-28T23:14:50.560Z,100.0
2019-01-28T23:16:49.922Z,100.0
2019-01-28T23:18:49.911Z,100.0
2019-01-28T23:20:50.006Z,100.0
2019-01-28T23:22:50.122Z,100.0
2019-01-28T23:24:50.180Z,100.0
2019-01-28T23:26:50.532Z,100.0
2019-01-28T23:28:50.503Z,100.0
2019-01-28T23:30:50.587Z,100.0
2019-01-28T23:32:50.556Z,100.0
2019-01-28T23:34:50.019Z,100.0
2019-01-28T23:36:50.202Z,100.0
2019-01-28T23:38:50.223Z,100.0
2019-01-28T23:40:50.286Z,100.0
2019-01-28T23:42:50.235Z,100.0
2019-01-28T23:44:50.260Z,100.0
2019-01-28T23:46:50.570Z,100.0
2019-01-28T23:48:50.594Z,100.0
2019-01-28T23:50:50.681Z,100.0
2019-01-28T23:52:50.686Z,100.0
2019-01-28T23:54:50.684Z,100.0
2019-01-28T23:56:49.882Z,100.0
2019-01-28T23:58:49.966Z,100.0
